Boca Raton, FL (33427)

11:44 PM EST on November 25, 2014 (GMT -0500)
Boca Surf Cam . Com | Change Station
CLOSE
Current Station
Personal Weather Station
Location: Boca Raton, FL
Elevation: 26 ft
Nearby Weather Stations

Elev 26 ft 26.35 °N, 80.07 °W | Updated 5 minutes ago

Partly Cloudy
Partly Cloudy
79.2 °F
Feels Like 83 °F
N
14.5
Wind Variable Wind from South

Today
High -- | Low -- °F
--% Chance of Precip.
Yesterday
High -- | Low -- °F
Precip. -- in
6:46 AM 5:27 PM
Waxing Crescent, 16% visible
Pressure 29.94 in
Visibility 8.0 miles
Clouds Scattered Clouds 1300 ft
Heat Index 83 °F
Dew Point 75 °F
Humidity 86%
Rainfall 0.00 in
Snow Depth Not available.
UV 0 out of 12
Pollen 2.40 out of 12
Air Quality Not available.
Flu Activity Not available.
SPECI KPMP 260437Z 16012KT 8SM SCT013 27/24 A2994 RMK AO2 T02670239

More Conditions Fewer Conditions

Pressure 29.94 in
Visibility 8.0 miles
Clouds Scattered Clouds 1300 ft
Heat Index 83 °F
Dew Point 75 °F
Humidity 86%
Rainfall 0.00 in
Snow Depth Not available.
UV 0 out of 12
Pollen 2.40 out of 12
Air Quality Not available.
Flu Activity Not available.
SPECI KPMP 260437Z 16012KT 8SM SCT013 27/24 A2994 RMK AO2 T02670239

More Conditions Fewer Conditions

10-Day Weather Forecast

Almanac

Astronomy

Nov. 25, 2014 Rise Set
Actual Time
Civil Twilight
Nautical Twilight
Astronomical Twilight
Moon
Length of Visible Light
Length of Day
Tomorrow will be .
, % of the Moon is Illuminated

Today's Extremes

State Highs State Lows

Community

WunderPhotos

Upload Photos

1,773,686 photos uploaded!

WunderBlogs® & News

Nearby

Air Quality

  Air Quality AQ Index Pollutant
Not available.

Snow Depth

Station Depth Elevation

Earthquake Activity

City Distance Mag. Time & Date
Minimum magnitude displayed is 2.5.

Coastal Water Temperatures

Place Temperature

Nearby Weather Stations